ARG1393 SACO-SABE
Flight info
| Callsign | ARG1393 |
|---|---|
| Flight time | 0h 52m |
| Altitude | FL330 |
| Route | UTRA1C UTRAX UW24 SNT SNT8Q |
| Aircraft | B38M/M-SDE2E3FGHIRWXY/LB1 |
Departure
| Time | 2026-05-06 21:45 |
|---|---|
| Airport | Ingeniero Aeronáutico Ambrosio L.V. Taravella International Airport (SACO) |
Arrival
| Time | 2026-05-06 22:38 |
|---|---|
| Airport | Aeroparque Jorge Newbery (SABE) |
| Time | Latitude | Longitude | Altitude | Speed | Heading |
|---|---|---|---|---|---|
| 2026-05-06 21:29 | -31.31551 | -64.21167 | 1615 ft | 0 kts | 258° |
| 2026-05-06 21:35 | -31.31550 | -64.21159 | 1615 ft | 4 kts | 256° |
| 2026-05-06 21:36 | -31.31541 | -64.21129 | 1621 ft | 4 kts | 245° |
| 2026-05-06 21:36 | -31.31528 | -64.21102 | 1621 ft | 4 kts | 230° |
| 2026-05-06 21:36 | -31.31508 | -64.21083 | 1623 ft | 4 kts | 201° |
| 2026-05-06 21:36 | -31.31494 | -64.21079 | 1618 ft | 0 kts | 183° |
| 2026-05-06 21:41 | -31.31511 | -64.21080 | 1623 ft | 4 kts | 185° |
| 2026-05-06 21:41 | -31.31552 | -64.21089 | 1620 ft | 8 kts | 193° |
| 2026-05-06 21:41 | -31.31616 | -64.21105 | 1616 ft | 11 kts | 192° |
| 2026-05-06 21:41 | -31.31700 | -64.21096 | 1618 ft | 13 kts | 173° |
| 2026-05-06 21:42 | -31.31779 | -64.21042 | 1619 ft | 14 kts | 148° |
| 2026-05-06 21:42 | -31.31854 | -64.21028 | 1624 ft | 11 kts | 179° |
| 2026-05-06 21:42 | -31.31937 | -64.21027 | 1621 ft | 13 kts | 179° |
| 2026-05-06 21:42 | -31.32031 | -64.21026 | 1617 ft | 14 kts | 179° |
| 2026-05-06 21:43 | -31.32135 | -64.21024 | 1615 ft | 16 kts | 179° |
| 2026-05-06 21:43 | -31.32250 | -64.21021 | 1618 ft | 17 kts | 179° |
| 2026-05-06 21:43 | -31.32357 | -64.21019 | 1617 ft | 12 kts | 178° |
| 2026-05-06 21:43 | -31.32428 | -64.20966 | 1616 ft | 13 kts | 118° |
| 2026-05-06 21:44 | -31.32413 | -64.20862 | 1617 ft | 15 kts | 49° |
| 2026-05-06 21:44 | -31.32320 | -64.20817 | 1620 ft | 15 kts | 5° |
| 2026-05-06 21:44 | -31.32200 | -64.20817 | 1617 ft | 30 kts | 359° |
| 2026-05-06 21:44 | -31.31747 | -64.20823 | 1621 ft | 99 kts | 359° |
| 2026-05-06 21:45 | -31.30867 | -64.20838 | 1622 ft | 152 kts | 359° |
| 2026-05-06 21:45 | -31.29800 | -64.20868 | 2194 ft | 155 kts | 358° |
| 2026-05-06 21:45 | -31.28682 | -64.20890 | 2677 ft | 164 kts | 359° |
| 2026-05-06 21:45 | -31.27531 | -64.20890 | 3285 ft | 169 kts | 358° |
| 2026-05-06 21:46 | -31.26306 | -64.20855 | 3780 ft | 184 kts | 7° |
| 2026-05-06 21:46 | -31.25141 | -64.20190 | 4471 ft | 195 kts | 39° |
| 2026-05-06 21:46 | -31.24389 | -64.18823 | 5060 ft | 211 kts | 72° |
| 2026-05-06 21:46 | -31.24258 | -64.17102 | 5683 ft | 219 kts | 88° |
| 2026-05-06 21:47 | -31.24226 | -64.15283 | 6247 ft | 228 kts | 89° |
| 2026-05-06 21:47 | -31.24194 | -64.13408 | 6830 ft | 234 kts | 88° |
| 2026-05-06 21:47 | -31.24346 | -64.11481 | 7287 ft | 249 kts | 111° |
| 2026-05-06 21:47 | -31.25164 | -64.09608 | 7605 ft | 271 kts | 123° |
| 2026-05-06 21:48 | -31.26132 | -64.07661 | 8183 ft | 283 kts | 123° |
| 2026-05-06 21:48 | -31.27136 | -64.05652 | 8924 ft | 290 kts | 123° |
| 2026-05-06 21:48 | -31.28299 | -64.03696 | 9517 ft | 300 kts | 139° |
| 2026-05-06 21:48 | -31.29845 | -64.01984 | 9983 ft | 315 kts | 142° |
| 2026-05-06 21:49 | -31.31482 | -64.00183 | 10418 ft | 334 kts | 142° |
| 2026-05-06 21:49 | -31.33207 | -63.98267 | 10866 ft | 351 kts | 141° |
| 2026-05-06 21:49 | -31.35000 | -63.96263 | 11417 ft | 363 kts | 141° |
| 2026-05-06 21:49 | -31.36842 | -63.94202 | 12069 ft | 371 kts | 141° |
| 2026-05-06 21:50 | -31.38713 | -63.92108 | 12815 ft | 376 kts | 141° |
| 2026-05-06 21:50 | -31.40612 | -63.89980 | 13540 ft | 381 kts | 141° |
| 2026-05-06 21:50 | -31.42538 | -63.87820 | 14222 ft | 386 kts | 141° |
| 2026-05-06 21:50 | -31.44482 | -63.85640 | 14918 ft | 390 kts | 141° |
| 2026-05-06 21:51 | -31.46448 | -63.83434 | 15595 ft | 395 kts | 141° |
| 2026-05-06 21:51 | -31.48441 | -63.81207 | 16270 ft | 399 kts | 141° |
| 2026-05-06 21:51 | -31.50455 | -63.78954 | 16934 ft | 404 kts | 141° |
| 2026-05-06 21:51 | -31.52498 | -63.76669 | 17574 ft | 409 kts | 141° |
| 2026-05-06 21:52 | -31.54555 | -63.74365 | 18188 ft | 413 kts | 141° |
| 2026-05-06 21:52 | -31.56638 | -63.72030 | 18761 ft | 416 kts | 141° |
| 2026-05-06 21:52 | -31.58733 | -63.69681 | 19333 ft | 420 kts | 141° |
| 2026-05-06 21:52 | -31.60853 | -63.67301 | 19890 ft | 424 kts | 141° |
| 2026-05-06 21:53 | -31.62993 | -63.64910 | 20446 ft | 427 kts | 141° |
| 2026-05-06 21:53 | -31.65161 | -63.62516 | 20986 ft | 431 kts | 141° |
| 2026-05-06 21:53 | -31.67349 | -63.60096 | 21534 ft | 435 kts | 141° |
| 2026-05-06 21:53 | -31.69552 | -63.57655 | 22064 ft | 439 kts | 141° |
| 2026-05-06 21:54 | -31.71775 | -63.55192 | 22599 ft | 442 kts | 141° |
| 2026-05-06 21:54 | -31.74017 | -63.52704 | 23110 ft | 446 kts | 141° |
| 2026-05-06 21:54 | -31.76275 | -63.50197 | 23562 ft | 450 kts | 141° |
| 2026-05-06 21:54 | -31.78549 | -63.47671 | 23981 ft | 453 kts | 141° |
| 2026-05-06 21:55 | -31.80847 | -63.45116 | 24404 ft | 457 kts | 141° |
| 2026-05-06 21:55 | -31.83158 | -63.42546 | 24822 ft | 460 kts | 141° |
| 2026-05-06 21:55 | -31.85487 | -63.39953 | 25225 ft | 463 kts | 141° |
| 2026-05-06 21:55 | -31.87829 | -63.37340 | 25634 ft | 467 kts | 140° |
| 2026-05-06 21:56 | -31.89970 | -63.34442 | 26037 ft | 473 kts | 131° |
| 2026-05-06 21:56 | -31.92023 | -63.31407 | 26427 ft | 477 kts | 131° |
| 2026-05-06 21:56 | -31.94091 | -63.28347 | 26816 ft | 480 kts | 131° |
| 2026-05-06 21:56 | -31.96168 | -63.25265 | 27195 ft | 483 kts | 131° |
| 2026-05-06 21:57 | -31.98238 | -63.22189 | 27571 ft | 486 kts | 131° |
| 2026-05-06 21:57 | -32.00361 | -63.19032 | 27955 ft | 489 kts | 131° |
| 2026-05-06 21:57 | -32.02478 | -63.15881 | 28325 ft | 493 kts | 131° |
| 2026-05-06 21:57 | -32.04605 | -63.12714 | 28697 ft | 495 kts | 131° |
| 2026-05-06 21:58 | -32.06744 | -63.09526 | 29063 ft | 498 kts | 131° |
| 2026-05-06 21:58 | -32.08897 | -63.06314 | 29405 ft | 501 kts | 131° |
| 2026-05-06 21:58 | -32.11057 | -63.03087 | 29756 ft | 504 kts | 131° |
| 2026-05-06 21:58 | -32.13231 | -62.99839 | 30034 ft | 507 kts | 131° |
| 2026-05-06 21:59 | -32.15417 | -62.96569 | 30293 ft | 510 kts | 131° |
| 2026-05-06 21:59 | -32.17616 | -62.93277 | 30546 ft | 514 kts | 131° |
| 2026-05-06 21:59 | -32.19830 | -62.89959 | 30808 ft | 517 kts | 131° |
| 2026-05-06 21:59 | -32.22056 | -62.86622 | 31067 ft | 520 kts | 131° |
| 2026-05-06 22:00 | -32.24297 | -62.83257 | 31313 ft | 524 kts | 131° |
| 2026-05-06 22:00 | -32.26548 | -62.79875 | 31571 ft | 527 kts | 131° |
| 2026-05-06 22:00 | -32.28816 | -62.76464 | 31837 ft | 530 kts | 131° |
| 2026-05-06 22:00 | -32.31094 | -62.73036 | 32071 ft | 533 kts | 131° |
| 2026-05-06 22:01 | -32.33383 | -62.69587 | 32308 ft | 536 kts | 131° |
| 2026-05-06 22:01 | -32.35689 | -62.66110 | 32560 ft | 539 kts | 131° |
| 2026-05-06 22:01 | -32.38001 | -62.62619 | 32681 ft | 542 kts | 131° |
| 2026-05-06 22:01 | -32.40326 | -62.59107 | 32669 ft | 542 kts | 131° |
| 2026-05-06 22:02 | -32.44956 | -62.52103 | 32676 ft | 541 kts | 131° |
| 2026-05-06 22:02 | -32.49583 | -62.45090 | 32667 ft | 541 kts | 131° |
| 2026-05-06 22:03 | -32.54206 | -62.38070 | 32667 ft | 542 kts | 131° |
| 2026-05-06 22:03 | -32.58827 | -62.31040 | 32666 ft | 542 kts | 131° |
| 2026-05-06 22:04 | -32.63444 | -62.24005 | 32659 ft | 542 kts | 131° |
| 2026-05-06 22:04 | -32.68050 | -62.16946 | 32661 ft | 542 kts | 128° |
| 2026-05-06 22:05 | -32.72312 | -62.09566 | 32665 ft | 543 kts | 127° |
| 2026-05-06 22:05 | -32.76609 | -62.02216 | 32663 ft | 543 kts | 127° |
| 2026-05-06 22:06 | -32.80908 | -61.94863 | 32660 ft | 543 kts | 127° |
| 2026-05-06 22:06 | -32.85204 | -61.87501 | 32663 ft | 543 kts | 127° |
| 2026-05-06 22:07 | -32.89493 | -61.80139 | 32663 ft | 543 kts | 127° |
| 2026-05-06 22:07 | -32.93775 | -61.72772 | 32666 ft | 542 kts | 127° |
| 2026-05-06 22:08 | -32.98054 | -61.65397 | 32658 ft | 541 kts | 127° |
| 2026-05-06 22:08 | -33.02314 | -61.58039 | 32658 ft | 541 kts | 127° |
| 2026-05-06 22:09 | -33.06574 | -61.50668 | 32661 ft | 540 kts | 127° |
| 2026-05-06 22:09 | -33.10819 | -61.43307 | 32656 ft | 540 kts | 127° |
| 2026-05-06 22:10 | -33.15063 | -61.35935 | 32657 ft | 540 kts | 127° |
| 2026-05-06 22:10 | -33.19296 | -61.28566 | 32665 ft | 539 kts | 127° |
| 2026-05-06 22:11 | -33.23524 | -61.21192 | 32664 ft | 538 kts | 127° |
| 2026-05-06 22:11 | -33.27742 | -61.13821 | 32656 ft | 538 kts | 127° |
| 2026-05-06 22:12 | -33.31926 | -61.06434 | 32656 ft | 538 kts | 126° |
| 2026-05-06 22:12 | -33.36104 | -60.99043 | 32660 ft | 537 kts | 126° |
| 2026-05-06 22:13 | -33.40267 | -60.91639 | 32656 ft | 537 kts | 126° |
| 2026-05-06 22:13 | -33.44426 | -60.84230 | 32659 ft | 536 kts | 126° |
| 2026-05-06 22:14 | -33.46380 | -60.80482 | 32554 ft | 527 kts | 117° |
| 2026-05-06 22:14 | -33.47945 | -60.76545 | 32013 ft | 524 kts | 117° |
| 2026-05-06 22:14 | -33.49586 | -60.72629 | 31055 ft | 531 kts | 117° |
| 2026-05-06 22:14 | -33.51271 | -60.68686 | 30243 ft | 531 kts | 117° |
| 2026-05-06 22:15 | -33.52936 | -60.64827 | 29850 ft | 513 kts | 117° |
| 2026-05-06 22:15 | -33.54545 | -60.61109 | 29487 ft | 496 kts | 117° |
| 2026-05-06 22:15 | -33.56107 | -60.57495 | 28955 ft | 483 kts | 117° |
| 2026-05-06 22:15 | -33.57632 | -60.53966 | 28428 ft | 472 kts | 117° |
| 2026-05-06 22:16 | -33.59117 | -60.50526 | 27975 ft | 460 kts | 117° |
| 2026-05-06 22:16 | -33.60566 | -60.47164 | 27518 ft | 449 kts | 117° |
| 2026-05-06 22:16 | -33.61978 | -60.43885 | 27082 ft | 439 kts | 117° |
| 2026-05-06 22:16 | -33.63362 | -60.40672 | 26628 ft | 429 kts | 117° |
| 2026-05-06 22:17 | -33.64724 | -60.37504 | 26204 ft | 432 kts | 117° |
| 2026-05-06 22:17 | -33.66105 | -60.34290 | 25748 ft | 436 kts | 117° |
| 2026-05-06 22:17 | -33.67492 | -60.31058 | 25317 ft | 436 kts | 117° |
| 2026-05-06 22:17 | -33.68875 | -60.27833 | 24884 ft | 435 kts | 117° |
| 2026-05-06 22:18 | -33.70256 | -60.24607 | 24447 ft | 435 kts | 117° |
| 2026-05-06 22:18 | -33.71633 | -60.21392 | 24014 ft | 434 kts | 117° |
| 2026-05-06 22:18 | -33.73006 | -60.18179 | 23581 ft | 433 kts | 117° |
| 2026-05-06 22:18 | -33.74379 | -60.14966 | 23142 ft | 433 kts | 117° |
| 2026-05-06 22:19 | -33.75746 | -60.11762 | 22656 ft | 431 kts | 117° |
| 2026-05-06 22:19 | -33.77107 | -60.08570 | 22228 ft | 429 kts | 117° |
| 2026-05-06 22:19 | -33.78461 | -60.05394 | 21809 ft | 426 kts | 117° |
| 2026-05-06 22:19 | -33.79804 | -60.02238 | 21394 ft | 424 kts | 117° |
| 2026-05-06 22:20 | -33.81139 | -59.99098 | 20976 ft | 421 kts | 117° |
| 2026-05-06 22:20 | -33.82466 | -59.95975 | 20559 ft | 419 kts | 117° |
| 2026-05-06 22:20 | -33.83785 | -59.92867 | 20149 ft | 417 kts | 116° |
| 2026-05-06 22:20 | -33.85099 | -59.89770 | 19734 ft | 416 kts | 116° |
| 2026-05-06 22:21 | -33.86406 | -59.86686 | 19331 ft | 414 kts | 116° |
| 2026-05-06 22:21 | -33.87708 | -59.83609 | 18909 ft | 413 kts | 116° |
| 2026-05-06 22:21 | -33.89005 | -59.80542 | 18503 ft | 412 kts | 116° |
| 2026-05-06 22:21 | -33.90298 | -59.77484 | 18100 ft | 410 kts | 116° |
| 2026-05-06 22:22 | -33.91587 | -59.74430 | 17653 ft | 409 kts | 116° |
| 2026-05-06 22:22 | -33.92871 | -59.71389 | 17216 ft | 407 kts | 116° |
| 2026-05-06 22:22 | -33.94147 | -59.68360 | 16811 ft | 405 kts | 116° |
| 2026-05-06 22:22 | -33.95413 | -59.65354 | 16390 ft | 403 kts | 116° |
| 2026-05-06 22:23 | -33.96673 | -59.62359 | 15979 ft | 400 kts | 116° |
| 2026-05-06 22:23 | -33.97925 | -59.59381 | 15581 ft | 398 kts | 116° |
| 2026-05-06 22:23 | -33.99170 | -59.56417 | 15181 ft | 396 kts | 116° |
| 2026-05-06 22:23 | -34.00406 | -59.53470 | 14780 ft | 394 kts | 116° |
| 2026-05-06 22:24 | -34.01638 | -59.50533 | 14378 ft | 393 kts | 116° |
| 2026-05-06 22:24 | -34.02864 | -59.47607 | 13968 ft | 391 kts | 117° |
| 2026-05-06 22:24 | -34.04082 | -59.44696 | 13576 ft | 389 kts | 117° |
| 2026-05-06 22:24 | -34.05297 | -59.41790 | 13141 ft | 388 kts | 116° |
| 2026-05-06 22:25 | -34.06504 | -59.38901 | 12715 ft | 386 kts | 116° |
| 2026-05-06 22:25 | -34.07705 | -59.36025 | 12304 ft | 383 kts | 116° |
| 2026-05-06 22:25 | -34.08896 | -59.33169 | 11911 ft | 380 kts | 116° |
| 2026-05-06 22:25 | -34.10080 | -59.30330 | 11525 ft | 378 kts | 116° |
| 2026-05-06 22:26 | -34.11250 | -59.27519 | 11135 ft | 375 kts | 116° |
| 2026-05-06 22:26 | -34.12413 | -59.24725 | 10744 ft | 372 kts | 116° |
| 2026-05-06 22:26 | -34.13569 | -59.21943 | 10360 ft | 370 kts | 116° |
| 2026-05-06 22:26 | -34.14715 | -59.19185 | 10030 ft | 366 kts | 116° |
| 2026-05-06 22:27 | -34.15836 | -59.16484 | 9864 ft | 356 kts | 116° |
| 2026-05-06 22:27 | -34.16932 | -59.13842 | 9630 ft | 350 kts | 116° |
| 2026-05-06 22:27 | -34.18016 | -59.11227 | 9221 ft | 349 kts | 115° |
| 2026-05-06 22:27 | -34.19098 | -59.08616 | 8821 ft | 348 kts | 115° |
| 2026-05-06 22:28 | -34.20175 | -59.06011 | 8443 ft | 346 kts | 115° |
| 2026-05-06 22:28 | -34.21245 | -59.03425 | 8075 ft | 344 kts | 115° |
| 2026-05-06 22:28 | -34.22310 | -59.00850 | 7722 ft | 343 kts | 115° |
| 2026-05-06 22:28 | -34.23369 | -58.98283 | 7357 ft | 341 kts | 115° |
| 2026-05-06 22:29 | -34.24421 | -58.95734 | 6994 ft | 337 kts | 115° |
| 2026-05-06 22:29 | -34.25446 | -58.93248 | 6638 ft | 326 kts | 115° |
| 2026-05-06 22:29 | -34.26439 | -58.90837 | 6304 ft | 316 kts | 115° |
| 2026-05-06 22:29 | -34.27400 | -58.88504 | 5976 ft | 306 kts | 115° |
| 2026-05-06 22:30 | -34.28333 | -58.86235 | 5646 ft | 297 kts | 115° |
| 2026-05-06 22:30 | -34.29227 | -58.84060 | 5467 ft | 282 kts | 115° |
| 2026-05-06 22:30 | -34.30078 | -58.81989 | 5291 ft | 270 kts | 115° |
| 2026-05-06 22:30 | -34.30906 | -58.79973 | 5196 ft | 268 kts | 115° |
| 2026-05-06 22:31 | -34.31730 | -58.77963 | 5065 ft | 267 kts | 115° |
| 2026-05-06 22:31 | -34.32628 | -58.76013 | 4907 ft | 266 kts | 128° |
| 2026-05-06 22:31 | -34.33886 | -58.74395 | 4697 ft | 264 kts | 135° |
| 2026-05-06 22:31 | -34.35169 | -58.72820 | 4501 ft | 262 kts | 134° |
| 2026-05-06 22:32 | -34.36441 | -58.71249 | 4294 ft | 261 kts | 134° |
| 2026-05-06 22:32 | -34.37701 | -58.69688 | 4094 ft | 259 kts | 134° |
| 2026-05-06 22:32 | -34.38946 | -58.68140 | 3885 ft | 255 kts | 133° |
| 2026-05-06 22:32 | -34.40166 | -58.66624 | 3713 ft | 249 kts | 133° |
| 2026-05-06 22:33 | -34.41353 | -58.65147 | 3543 ft | 243 kts | 133° |
| 2026-05-06 22:33 | -34.42515 | -58.63699 | 3337 ft | 238 kts | 133° |
| 2026-05-06 22:33 | -34.43656 | -58.62292 | 3196 ft | 230 kts | 133° |
| 2026-05-06 22:33 | -34.44754 | -58.60971 | 3110 ft | 216 kts | 132° |
| 2026-05-06 22:34 | -34.45710 | -58.59654 | 3019 ft | 198 kts | 126° |
| 2026-05-06 22:34 | -34.46509 | -58.58388 | 2839 ft | 185 kts | 122° |
| 2026-05-06 22:34 | -34.47242 | -58.57128 | 2615 ft | 183 kts | 121° |
| 2026-05-06 22:34 | -34.47957 | -58.55859 | 2382 ft | 180 kts | 121° |
| 2026-05-06 22:35 | -34.48642 | -58.54640 | 2202 ft | 173 kts | 120° |
| 2026-05-06 22:35 | -34.49300 | -58.53464 | 1965 ft | 166 kts | 119° |
| 2026-05-06 22:35 | -34.49939 | -58.52316 | 1742 ft | 163 kts | 119° |
| 2026-05-06 22:35 | -34.50571 | -58.51181 | 1531 ft | 163 kts | 119° |
| 2026-05-06 22:36 | -34.51198 | -58.50055 | 1346 ft | 160 kts | 120° |
| 2026-05-06 22:36 | -34.51813 | -58.48949 | 1113 ft | 158 kts | 120° |
| 2026-05-06 22:36 | -34.52424 | -58.47853 | 916 ft | 155 kts | 119° |
| 2026-05-06 22:36 | -34.53019 | -58.46781 | 765 ft | 151 kts | 120° |
| 2026-05-06 22:37 | -34.53407 | -58.46086 | 676 ft | 149 kts | 121° |
| 2026-05-06 22:37 | -34.54168 | -58.44714 | 421 ft | 146 kts | 122° |
| 2026-05-06 22:37 | -34.54745 | -58.43708 | 227 ft | 144 kts | 123° |
| 2026-05-06 22:37 | -34.55294 | -58.42705 | 55 ft | 141 kts | 123° |
| 2026-05-06 22:38 | -34.55791 | -58.41818 | 28 ft | 115 kts | 123° |
| 2026-05-06 22:38 | -34.56012 | -58.41422 | 27 ft | 8 kts | 125° |
| 2026-05-06 22:38 | -34.56022 | -58.41390 | 28 ft | 0 kts | 115° |
| 2026-05-06 22:38 | -34.56021 | -58.41381 | 28 ft | 4 kts | 86° |
| 2026-05-06 22:39 | -34.55987 | -58.41338 | 28 ft | 8 kts | 34° |
| 2026-05-06 22:39 | -34.55935 | -58.41307 | 28 ft | 9 kts | 1° |
| 2026-05-06 22:39 | -34.55863 | -58.41285 | 28 ft | 9 kts | 14° |
| 2026-05-06 22:39 | -34.55821 | -58.41315 | 28 ft | 8 kts | 306° |
| 2026-05-06 22:40 | -34.55791 | -58.41368 | 28 ft | 1 kts | 304° |
| 2026-05-06 22:40 | -34.55782 | -58.41383 | 28 ft | 3 kts | 304° |
| 2026-05-06 22:40 | -34.55764 | -58.41417 | 28 ft | 6 kts | 304° |
| 2026-05-06 22:40 | -34.55746 | -58.41447 | 28 ft | 2 kts | 321° |
| 2026-05-06 22:41 | -34.55731 | -58.41453 | 28 ft | 2 kts | 349° |
| 2026-05-06 22:41 | -34.55713 | -58.41451 | 28 ft | 1 kts | 14° |
| 2026-05-06 22:41 | -34.55702 | -58.41446 | 28 ft | 2 kts | 20° |
| 2026-05-06 22:42 | -34.55701 | -58.41446 | 28 ft | 0 kts | 19° |
| 2026-05-06 22:42 | -34.55700 | -58.41446 | 28 ft | 0 kts | 18° |